LKTB/BRQ METAR and TAF weather

Enter ICAO airport designator
Station Type Date Time Source
LKTB METAR 2020/01/21 09:30 UTC NOAA

LKTB 210930Z 35005KT 9999 FEW011 BKN016 01/M03 Q1043 R27/21//95 NOSIG


Station Type Date Time Source
LKTB Decoded METAR 2020/01/21 09:30 UTC NOAA

Brno / Turany, Czech Republic (LKTB) 49-09N 016-42E 246M
Jan 21, 2020 - 04:30 AM EST / 2020.01.21 0930 UTC
Wind: from the N (350 degrees) at 6 MPH (5 KT):0
Visibility: greater than 7 mile(s):0
Sky conditions: mostly cloudy
Temperature: 33 F (1 C)
Windchill: 26 F (-3 C):1
Dew Point: 26 F (-3 C)
Relative Humidity: 74%
Pressure (altimeter): 30.80 in. Hg (1043 hPa)
ob: LKTB 210930Z 35005KT 9999 FEW011 BKN016 01/M03 Q1043 R27/21//95 NOSIG
cycle: 9

Station Type Date Time Source
LKTB TAF 2020/01/21 06:06 UTC NOAA

TAF LKTB 210500Z 2106/2212 VRB02KT 9999 BKN017
TEMPO 2106/2107 6000 BKN014
BECMG 2107/2110 SCT026
TEMPO 2111/2115 23004KT
BECMG 2121/2200 31004KT
TEMPO 2121/2203 BKN012

Example: see airport list